Time;durP1;ratioP1;P1;durP2;ratioP2;P2;SDS_P1;SDS_P2;PMS_P1;PMS_P2;Temp;Humidity;BMP_temperature;BMP_pressure;BME280_temperature;BME280_humidity;BME280_pressure;Samples;Min_cycle;Max_cycle;Signal;HPM_P1;HPM_P2
2022/07/11 00:02:12;;;;;;;0.88;0.20;;;;;;;31.47;21.20;98276.03;5099348;27;20040;-79
2022/07/11 00:04:38;;;;;;;0.85;0.30;;;;;;;31.45;21.13;98280.63;5084264;28;20035;-78
2022/07/11 00:07:06;;;;;;;0.85;0.30;;;;;;;31.07;21.64;98273.47;5101746;27;20099;-78
2022/07/11 00:09:32;;;;;;;0.65;0.35;;;;;;;31.12;21.59;98272.03;5078055;28;20373;-78
2022/07/11 00:11:59;;;;;;;1.23;0.60;;;;;;;30.74;22.22;98267.69;5085051;28;20031;-78
2022/07/11 00:14:25;;;;;;;0.73;0.20;;;;;;;30.51;22.15;98276.06;5083621;28;20584;-78
2022/07/11 00:16:53;;;;;;;0.70;0.40;;;;;;;30.72;22.33;98267.38;5087479;28;20118;-78
2022/07/11 00:19:20;;;;;;;0.60;0.30;;;;;;;30.78;22.17;98265.47;5083291;28;20773;-78
2022/07/11 00:21:47;;;;;;;0.88;0.40;;;;;;;30.80;21.92;98276.38;5083568;28;20399;-78
2022/07/11 00:24:13;;;;;;;1.67;0.40;;;;;;;30.90;21.84;98268.66;5085407;28;20096;-78
2022/07/11 00:26:39;;;;;;;0.98;0.30;;;;;;;30.80;22.09;98275.56;5078592;28;20048;-78
2022/07/11 00:29:05;;;;;;;0.77;0.25;;;;;;;30.72;22.15;98280.78;5075270;28;20063;-78
2022/07/11 00:31:32;;;;;;;0.43;0.20;;;;;;;30.77;21.96;98272.44;5080145;28;20484;-78
2022/07/11 00:33:58;;;;;;;0.20;0.20;;;;;;;30.66;22.34;98268.50;5077777;28;20038;-78
2022/07/11 00:36:25;;;;;;;1.75;0.40;;;;;;;30.34;22.40;98269.94;5082204;28;20116;-78
2022/07/11 00:38:51;;;;;;;0.82;0.50;;;;;;;30.22;22.93;98268.03;5082778;28;20098;-78
2022/07/11 00:41:18;;;;;;;2.20;0.45;;;;;;;30.41;22.69;98271.69;5083240;28;20028;-78
2022/07/11 00:43:52;;;;;;;1.80;0.30;;;;;;;30.30;22.48;98268.50;5081838;28;20056;-78
2022/07/11 00:46:19;;;;;;;0.95;0.35;;;;;;;30.14;22.87;98258.28;5080904;28;20503;-78
2022/07/11 00:48:45;;;;;;;1.13;0.30;;;;;;;30.08;22.99;98258.09;5077706;28;20040;-78
2022/07/11 00:51:12;;;;;;;0.68;0.30;;;;;;;30.41;22.20;98266.78;5077693;28;20035;-78
2022/07/11 00:53:40;;;;;;;3.00;0.32;;;;;;;30.67;21.93;98270.06;5082057;28;20032;-78
2022/07/11 00:56:07;;;;;;;0.63;0.28;;;;;;;30.58;22.23;98270.88;5083516;28;20024;-78
2022/07/11 00:58:34;;;;;;;0.65;0.40;;;;;;;30.49;22.15;98264.44;5082802;28;20047;-78
2022/07/11 01:01:01;;;;;;;1.23;0.40;;;;;;;30.19;22.41;98259.69;5090721;28;21659;-78
2022/07/11 01:03:27;;;;;;;1.85;0.32;;;;;;;30.37;22.62;98269.00;5078555;28;20415;-78
2022/07/11 01:05:54;;;;;;;2.80;0.20;;;;;;;29.73;23.23;98264.47;5078657;28;20024;-78
2022/07/11 01:08:20;;;;;;;0.47;0.20;;;;;;;29.91;23.18;98270.19;5078089;28;20389;-78
2022/07/11 01:10:46;;;;;;;0.80;0.30;;;;;;;30.08;22.89;98268.66;5077486;28;20134;-78
2022/07/11 01:13:12;;;;;;;0.75;0.40;;;;;;;30.41;22.41;98266.03;5079041;28;20101;-78
2022/07/11 01:15:39;;;;;;;1.95;0.40;;;;;;;30.40;22.32;98270.91;5080738;28;20031;-78
2022/07/11 01:18:05;;;;;;;1.75;0.30;;;;;;;30.41;22.41;98268.84;5074559;28;20040;-78
2022/07/11 01:20:31;;;;;;;0.43;0.20;;;;;;;30.09;22.76;98268.19;5074203;28;20051;-78
2022/07/11 01:23:07;;;;;;;1.17;0.30;;;;;;;30.11;22.71;98276.19;5074065;28;20389;-78
2022/07/11 01:25:34;;;;;;;0.45;0.20;;;;;;;30.46;22.59;98277.50;5078843;28;20074;-78
2022/07/11 01:28:06;;;;;;;0.88;0.43;;;;;;;30.50;22.18;98268.84;5080595;28;20036;-78
2022/07/11 01:30:33;;;;;;;2.80;0.50;;;;;;;30.03;23.21;98272.91;5079122;28;20047;-79
2022/07/11 01:33:00;;;;;;;0.80;0.30;;;;;;;30.26;23.03;98260.16;5081805;28;20032;-79
2022/07/11 01:35:27;;;;;;;0.30;0.20;;;;;;;30.23;22.99;98263.13;5081125;28;20042;-78
2022/07/11 01:37:54;;;;;;;0.88;0.35;;;;;;;30.11;23.05;98264.88;5076592;28;20024;-78
2022/07/11 01:40:20;;;;;;;0.28;0.20;;;;;;;30.40;23.04;98268.06;5078630;28;20036;-78
2022/07/11 01:42:46;;;;;;;3.33;0.40;;;;;;;30.12;23.26;98266.44;5081955;28;20465;-78
2022/07/11 01:45:13;;;;;;;0.82;0.20;;;;;;;30.09;23.25;98264.56;5077140;28;20037;-78
2022/07/11 01:47:41;;;;;;;0.90;0.45;;;;;;;30.01;23.41;98266.13;5075139;28;20082;-78
2022/07/11 01:50:07;;;;;;;1.85;0.40;;;;;;;29.98;23.07;98261.41;5083295;28;20032;-78
2022/07/11 01:52:33;;;;;;;1.05;0.20;;;;;;;30.17;23.32;98263.00;5080887;28;20029;-78
2022/07/11 01:54:59;;;;;;;1.55;0.28;;;;;;;30.17;23.10;98262.19;5082170;28;20098;-78
2022/07/11 01:57:25;;;;;;;0.40;0.40;;;;;;;30.33;22.81;98264.75;5081834;28;20041;-78
2022/07/11 01:59:52;;;;;;;0.88;0.50;;;;;;;30.11;23.17;98262.03;5033274;28;1365003;-78
2022/07/11 02:02:18;;;;;;;0.68;0.20;;;;;;;29.45;23.81;98260.00;5084641;28;20032;-78
2022/07/11 02:04:44;;;;;;;1.60;0.45;;;;;;;29.74;23.64;98263.22;5081107;28;20036;-78
2022/07/11 02:07:11;;;;;;;3.13;0.43;;;;;;;29.96;23.52;98263.91;5078512;28;20048;-78
2022/07/11 02:09:38;;;;;;;0.70;0.40;;;;;;;30.03;23.38;98266.44;5077067;28;20138;-78
2022/07/11 02:12:05;;;;;;;1.75;0.40;;;;;;;30.22;23.22;98261.59;5080115;28;20420;-78
2022/07/11 02:14:31;;;;;;;1.05;0.55;;;;;;;30.32;23.12;98266.75;5093133;28;20052;-78
2022/07/11 02:16:58;;;;;;;3.10;0.57;;;;;;;30.11;23.39;98264.88;5079304;28;20063;-78
2022/07/11 02:19:24;;;;;;;1.08;0.30;;;;;;;30.25;23.00;98261.41;5077463;28;20040;-78
2022/07/11 02:21:51;;;;;;;0.38;0.17;;;;;;;30.39;22.82;98257.19;5079818;28;20505;-78
2022/07/11 02:24:18;;;;;;;0.45;0.25;;;;;;;30.24;23.13;98256.22;5079732;28;20036;-78
2022/07/11 02:26:44;;;;;;;0.57;0.25;;;;;;;30.07;23.06;98259.38;5092035;28;20037;-78
2022/07/11 02:29:10;;;;;;;1.00;0.30;;;;;;;30.26;23.10;98260.16;5077329;28;20536;-78
2022/07/11 02:31:36;;;;;;;1.00;0.35;;;;;;;30.06;23.14;98254.94;5080734;28;20036;-78
2022/07/11 02:34:02;;;;;;;0.52;0.30;;;;;;;30.13;23.16;98256.69;5080219;28;20026;-78
2022/07/11 02:36:28;;;;;;;0.30;0.20;;;;;;;30.30;22.91;98257.94;5075085;28;20032;-78
2022/07/11 02:38:54;;;;;;;0.90;0.40;;;;;;;30.30;22.70;98263.63;5080538;28;20108;-78
2022/07/11 02:41:20;;;;;;;0.75;0.38;;;;;;;30.18;23.28;98275.13;5076503;28;20077;-78
2022/07/11 02:43:47;;;;;;;0.75;0.28;;;;;;;30.29;23.33;98275.44;5079762;28;20032;-78
2022/07/11 02:46:13;;;;;;;2.00;0.77;;;;;;;30.48;22.75;98271.38;5075588;28;20103;-78
2022/07/11 02:48:39;;;;;;;3.13;0.28;;;;;;;30.60;22.61;98273.22;5095408;28;20115;-78
2022/07/11 02:51:05;;;;;;;0.90;0.40;;;;;;;30.42;22.72;98265.53;5081927;28;20078;-78
2022/07/11 02:53:31;;;;;;;0.88;0.50;;;;;;;30.44;22.86;98265.84;5075330;28;20459;-78
2022/07/11 02:55:57;;;;;;;1.08;0.30;;;;;;;30.26;22.86;98268.66;5074321;28;20455;-79
2022/07/11 02:58:23;;;;;;;1.20;0.40;;;;;;;30.46;22.85;98273.88;5076019;28;21448;-79
2022/07/11 03:00:49;;;;;;;1.00;0.40;;;;;;;30.52;22.72;98272.00;5077547;28;20044;-78
2022/07/11 03:03:15;;;;;;;0.50;0.35;;;;;;;30.55;22.67;98268.97;5081281;28;20032;-78
2022/07/11 03:05:42;;;;;;;0.63;0.20;;;;;;;30.69;22.60;98276.84;5094197;27;20024;-78
2022/07/11 03:08:08;;;;;;;0.77;0.20;;;;;;;30.69;22.41;98271.16;5080468;28;20036;-78
2022/07/11 03:10:34;;;;;;;0.60;0.32;;;;;;;30.67;22.64;98272.91;5080402;28;20028;-78
2022/07/11 03:13:00;;;;;;;0.80;0.28;;;;;;;30.71;22.40;98265.81;5077983;28;20024;-78
2022/07/11 03:15:26;;;;;;;0.75;0.30;;;;;;;30.41;22.90;98266.03;5066468;28;20058;-78
2022/07/11 03:17:53;;;;;;;0.57;0.32;;;;;;;30.07;23.26;98269.91;5083671;28;20071;-78
2022/07/11 03:20:19;;;;;;;0.40;0.30;;;;;;;29.93;23.28;98270.50;5082217;28;20040;-78
2022/07/11 03:22:45;;;;;;;1.52;0.30;;;;;;;29.67;24.00;98269.97;5082254;28;20448;-78
2022/07/11 03:25:11;;;;;;;1.85;0.30;;;;;;;29.82;23.91;98265.31;5080125;28;20085;-78
2022/07/11 03:27:37;;;;;;;1.50;0.45;;;;;;;29.93;23.83;98273.34;5062985;28;20471;-78
2022/07/11 03:30:04;;;;;;;0.45;0.28;;;;;;;30.17;23.62;98274.31;5059987;28;20046;-78
2022/07/11 03:32:30;;;;;;;0.57;0.30;;;;;;;29.97;23.61;98271.94;5081784;28;20032;-78
2022/07/11 03:37:41;;;;;;;1.60;0.35;;;;;;;29.89;23.56;98270.69;5075635;28;20126;-78
2022/07/11 03:40:08;;;;;;;1.52;0.50;;;;;;;29.73;23.84;98276.59;5077971;28;20110;-79
2022/07/11 03:42:34;;;;;;;2.40;0.40;;;;;;;29.90;23.79;98274.28;5091114;27;20036;-80
2022/07/11 03:45:01;;;;;;;0.88;0.40;;;;;;;30.01;23.94;98271.78;5081613;28;20024;-79
2022/07/11 03:47:27;;;;;;;0.50;0.50;;;;;;;29.67;23.84;98275.63;5081056;28;20093;-80
2022/07/11 03:49:53;;;;;;;1.92;0.55;;;;;;;29.90;23.97;98282.78;5067746;28;20113;-80
2022/07/11 03:52:19;;;;;;;1.85;0.30;;;;;;;29.93;23.99;98281.84;5083776;28;20117;-80
2022/07/11 03:54:45;;;;;;;3.38;1.17;;;;;;;30.35;23.49;98277.19;5080060;28;20024;-80
2022/07/11 03:57:11;;;;;;;0.93;0.40;;;;;;;30.52;23.52;98283.31;5079263;28;20414;-79
2022/07/11 03:59:37;;;;;;;1.67;0.40;;;;;;;30.64;23.42;98288.03;5077657;28;20083;-79
2022/07/11 04:02:04;;;;;;;1.67;0.22;;;;;;;30.63;23.04;98295.75;5082641;28;20040;-80
2022/07/11 04:04:30;;;;;;;1.00;0.30;;;;;;;30.42;23.31;98287.41;5076298;28;20024;-80
2022/07/11 04:06:56;;;;;;;1.63;0.40;;;;;;;30.42;23.58;98295.91;5078646;28;20043;-80
2022/07/11 04:09:24;;;;;;;0.30;0.25;;;;;;;29.86;24.28;98290.63;5087005;28;20098;-80
2022/07/11 04:11:50;;;;;;;1.23;0.38;;;;;;;29.27;24.94;98289.78;5080348;28;20047;-80
2022/07/11 04:14:17;;;;;;;1.95;0.40;;;;;;;29.47;24.95;98283.75;5085270;28;20028;-80
2022/07/11 04:16:43;;;;;;;0.30;0.30;;;;;;;29.57;24.70;98287.41;5063557;28;20445;-80
2022/07/11 04:19:09;;;;;;;1.83;0.47;;;;;;;29.80;24.46;98281.19;5075728;28;20119;-81
2022/07/11 04:21:35;;;;;;;1.85;0.52;;;;;;;29.48;24.81;98285.31;5075123;28;20024;-81
2022/07/11 04:24:01;;;;;;;1.65;0.25;;;;;;;29.62;24.88;98278.25;5082692;28;20028;-82
2022/07/11 04:26:27;;;;;;;2.50;0.40;;;;;;;30.03;24.47;98289.09;5078277;28;20056;-81
2022/07/11 04:28:53;;;;;;;2.08;0.50;;;;;;;30.11;24.46;98287.53;5079893;28;20082;-82
2022/07/11 04:31:19;;;;;;;1.13;0.32;;;;;;;30.00;24.51;98290.03;5077545;28;20139;-81
2022/07/11 04:33:45;;;;;;;0.85;0.40;;;;;;;30.27;24.39;98287.22;5075327;28;20092;-80
2022/07/11 04:36:11;;;;;;;1.00;0.40;;;;;;;29.83;24.67;98286.69;5078277;28;20475;-80
2022/07/11 04:38:37;;;;;;;0.30;0.30;;;;;;;30.13;24.52;98296.34;5087590;28;20055;-80
2022/07/11 04:41:04;;;;;;;1.75;0.60;;;;;;;30.32;24.48;98285.81;5075757;28;20035;-80
2022/07/11 04:43:30;;;;;;;2.00;0.52;;;;;;;29.80;25.47;98284.78;5091559;28;20032;-80
2022/07/11 04:45:56;;;;;;;0.90;0.30;;;;;;;29.72;25.65;98285.53;5095452;28;20036;-80
2022/07/11 04:48:22;;;;;;;0.80;0.38;;;;;;;29.88;25.23;98294.56;5088198;28;20085;-80
2022/07/11 04:50:48;;;;;;;0.65;0.38;;;;;;;30.30;24.99;98294.78;5096783;28;20055;-80
2022/07/11 04:53:14;;;;;;;1.25;0.52;;;;;;;30.42;24.73;98293.88;5079965;28;20490;-80
2022/07/11 04:55:41;;;;;;;0.63;0.30;;;;;;;30.47;24.66;98298.91;5081599;28;20032;-80
2022/07/11 04:58:08;;;;;;;0.65;0.28;;;;;;;30.12;25.02;98299.66;5086887;28;20044;-80
2022/07/11 05:00:35;;;;;;;1.25;0.50;;;;;;;29.96;25.34;98310.03;5099327;28;20117;-80
2022/07/11 05:03:01;;;;;;;1.10;0.40;;;;;;;30.12;25.08;98311.75;5074448;28;20497;-80
2022/07/11 05:05:28;;;;;;;0.60;0.40;;;;;;;29.84;25.13;98308.09;5090833;28;20027;-80
2022/07/11 05:07:54;;;;;;;1.75;0.20;;;;;;;29.72;25.64;98311.81;5084717;28;20056;-80
2022/07/11 05:10:20;;;;;;;1.70;0.40;;;;;;;29.86;25.40;98318.94;5074286;28;20135;-80
2022/07/11 05:12:46;;;;;;;2.42;0.50;;;;;;;29.63;25.94;98306.13;5085068;28;20037;-80
2022/07/11 05:15:12;;;;;;;2.58;0.45;;;;;;;29.85;25.56;98309.66;5082258;28;20107;-79
2022/07/11 05:17:39;;;;;;;3.40;0.70;;;;;;;29.72;25.63;98311.00;5084528;28;20088;-80
2022/07/11 05:20:05;;;;;;;0.82;0.40;;;;;;;30.09;25.59;98313.50;5073641;28;20034;-79
2022/07/11 05:22:31;;;;;;;1.20;0.55;;;;;;;30.18;25.75;98307.03;5080663;28;20024;-80
2022/07/11 05:24:57;;;;;;;0.50;0.30;;;;;;;30.75;25.24;98308.97;5082618;28;20592;-79
2022/07/11 05:27:24;;;;;;;1.95;0.30;;;;;;;30.91;24.73;98302.19;5087014;28;20035;-80
2022/07/11 05:29:50;;;;;;;1.77;0.57;;;;;;;30.90;25.25;98308.34;5073711;28;20048;-80
2022/07/11 05:32:16;;;;;;;1.23;0.60;;;;;;;30.72;24.99;98312.75;5100295;28;20059;-79
2022/07/11 05:34:42;;;;;;;1.60;0.68;;;;;;;30.58;25.91;98310.56;5076612;28;20093;-80
2022/07/11 05:37:08;;;;;;;1.50;0.55;;;;;;;30.91;25.49;98307.88;5090752;28;20137;-79
2022/07/11 05:39:34;;;;;;;1.25;0.57;;;;;;;31.25;25.13;98315.22;5073108;28;20037;-80
2022/07/11 05:42:00;;;;;;;0.90;0.30;;;;;;;31.51;24.85;98310.69;5078336;28;20027;-80
2022/07/11 05:44:26;;;;;;;1.27;0.30;;;;;;;31.81;24.31;98317.38;5082587;28;20040;-80
2022/07/11 05:46:53;;;;;;;1.00;0.40;;;;;;;32.09;24.13;98313.13;5087193;28;20047;-80
2022/07/11 05:49:19;;;;;;;1.20;0.43;;;;;;;31.89;24.06;98327.88;5095206;28;20106;-80
2022/07/11 05:51:45;;;;;;;1.42;0.30;;;;;;;31.83;24.34;98321.28;5087435;28;20041;-80
2022/07/11 05:54:11;;;;;;;3.05;0.50;;;;;;;31.53;25.09;98327.28;5073407;28;20107;-80
2022/07/11 05:56:37;;;;;;;0.88;0.30;;;;;;;32.16;24.20;98317.66;5085923;28;20031;-79
2022/07/11 05:59:03;;;;;;;2.38;0.40;;;;;;;32.23;23.67;98315.22;5088464;28;20464;-80
2022/07/11 06:01:31;;;;;;;0.75;0.55;;;;;;;31.33;24.31;98317.22;5090694;28;20039;-80
2022/07/11 06:03:59;;;;;;;1.05;0.50;;;;;;;31.40;24.56;98322.56;5084867;28;20040;-80
2022/07/11 06:06:25;;;;;;;1.30;0.50;;;;;;;31.51;24.41;98318.47;5090924;28;20036;-80
2022/07/11 06:08:53;;;;;;;4.13;0.63;;;;;;;31.14;24.59;98329.09;5079171;28;20044;-80
2022/07/11 06:11:19;;;;;;;0.80;0.30;;;;;;;31.41;24.94;98317.66;5094200;28;20118;-80
2022/07/11 06:13:47;;;;;;;2.13;0.50;;;;;;;31.76;24.76;98323.69;5084377;28;20085;-80
2022/07/11 06:16:13;;;;;;;2.28;0.50;;;;;;;32.04;24.18;98323.06;5074496;28;20038;-80
2022/07/11 06:18:40;;;;;;;2.22;0.52;;;;;;;32.34;24.21;98317.50;5065286;28;20491;-80
2022/07/11 06:21:06;;;;;;;1.85;0.50;;;;;;;31.95;24.24;98325.16;5076685;28;20024;-80
2022/07/11 06:23:34;;;;;;;2.22;0.40;;;;;;;31.91;23.93;98330.22;5088107;28;20028;-79
2022/07/11 06:26:01;;;;;;;2.10;0.60;;;;;;;31.67;24.27;98321.66;5085540;28;20028;-80
2022/07/11 06:28:27;;;;;;;1.38;0.55;;;;;;;31.64;24.27;98321.84;5076939;28;20050;-80
2022/07/11 06:30:53;;;;;;;3.97;1.15;;;;;;;31.31;24.19;98310.44;5086255;28;20036;-80
2022/07/11 06:33:20;;;;;;;1.35;0.70;;;;;;;30.93;24.63;98325.19;5081007;28;20043;-80
2022/07/11 06:35:47;;;;;;;0.80;0.60;;;;;;;30.91;25.62;98318.41;5090646;28;20027;-80
2022/07/11 06:38:15;;;;;;;1.30;0.43;;;;;;;31.60;25.10;98318.41;5086513;28;20098;-80
2022/07/11 06:40:45;;;;;;;2.92;0.80;;;;;;;31.65;24.48;98329.13;5076256;28;20036;-80
2022/07/11 06:43:12;;;;;;;2.03;0.63;;;;;;;31.85;24.12;98317.97;5087605;28;20032;-80
2022/07/11 06:45:38;;;;;;;7.97;0.50;;;;;;;32.11;23.45;98324.78;5105545;27;20027;-80
2022/07/11 06:48:05;;;;;;;2.00;0.52;;;;;;;31.99;23.42;98323.75;5076930;28;20043;-80
2022/07/11 06:50:32;;;;;;;2.55;0.80;;;;;;;31.26;24.17;98311.88;5092968;28;20451;-79
2022/07/11 06:52:59;;;;;;;2.75;0.70;;;;;;;31.30;24.77;98325.88;5095117;28;21499;-80
2022/07/11 06:55:25;;;;;;;5.78;0.80;;;;;;;31.07;25.20;98332.25;5089208;28;20103;-80
2022/07/11 06:57:51;;;;;;;1.00;0.60;;;;;;;31.50;25.01;98326.19;5067828;28;20051;-80
2022/07/11 07:00:18;;;;;;;1.38;0.40;;;;;;;31.89;24.49;98336.41;5086096;28;20052;-80
2022/07/11 07:02:45;;;;;;;1.73;0.60;;;;;;;31.81;24.31;98326.66;5080042;28;20162;-80
2022/07/11 07:05:11;;;;;;;2.60;0.60;;;;;;;31.89;24.41;98335.59;5088260;28;20035;-80
2022/07/11 07:07:37;;;;;;;2.40;0.63;;;;;;;32.25;23.67;98323.25;5086131;28;20391;-80
2022/07/11 07:10:04;;;;;;;1.77;0.45;;;;;;;31.85;24.00;98327.28;5088889;28;20401;-80
2022/07/11 07:12:30;;;;;;;1.95;0.60;;;;;;;31.87;25.07;98327.56;5078537;28;20511;-80
2022/07/11 07:14:56;;;;;;;0.75;0.38;;;;;;;30.92;26.13;98325.69;5083696;28;20143;-80
2022/07/11 07:17:22;;;;;;;3.03;0.50;;;;;;;31.16;25.17;98320.88;5086422;28;20044;-80
2022/07/11 07:19:48;;;;;;;3.33;0.80;;;;;;;31.07;25.59;98326.56;5080985;28;20028;-80
2022/07/11 07:22:16;;;;;;;2.63;0.70;;;;;;;31.15;25.18;98333.50;5086653;28;20028;-80
2022/07/11 07:24:43;;;;;;;3.78;0.60;;;;;;;31.45;25.03;98329.66;5090383;28;20557;-80
2022/07/11 07:27:10;;;;;;;3.15;0.80;;;;;;;31.73;24.83;98313.28;5081169;28;20051;-80
2022/07/11 07:29:36;;;;;;;2.85;0.70;;;;;;;31.59;24.95;98314.78;5095669;28;20028;-80
2022/07/11 07:32:02;;;;;;;0.85;0.60;;;;;;;31.77;25.11;98319.56;5091349;28;20103;-80
2022/07/11 07:34:29;;;;;;;1.50;0.80;;;;;;;31.46;25.49;98319.88;5093483;28;20036;-80
2022/07/11 07:36:55;;;;;;;1.17;0.52;;;;;;;31.06;25.42;98316.50;5099640;28;20494;-80
2022/07/11 07:39:21;;;;;;;1.70;0.75;;;;;;;31.32;26.14;98315.63;5082120;28;20386;-79
2022/07/11 07:41:47;;;;;;;6.43;0.85;;;;;;;32.11;24.04;98315.47;5091188;28;20040;-80
2022/07/11 07:44:13;;;;;;;1.20;0.82;;;;;;;31.90;23.80;98317.31;5095274;28;20115;-80
2022/07/11 07:46:39;;;;;;;1.95;0.65;;;;;;;30.50;27.48;98312.13;5093442;28;20032;-80
2022/07/11 07:49:05;;;;;;;3.05;0.80;;;;;;;31.10;25.26;98306.56;5091429;28;20109;-80
2022/07/11 07:51:32;;;;;;;1.52;0.60;;;;;;;32.09;23.99;98308.19;5087213;28;20043;-80
2022/07/11 07:53:58;;;;;;;2.05;0.70;;;;;;;32.29;23.15;98296.22;5092540;28;20020;-80
2022/07/11 07:56:25;;;;;;;3.17;0.70;;;;;;;29.94;27.26;98303.25;5084817;28;20065;-80
2022/07/11 07:58:51;;;;;;;0.75;0.50;;;;;;;30.94;26.98;98295.59;5085847;28;20064;-80
2022/07/11 08:01:36;;;;;;;2.63;0.70;;;;;;;31.26;24.17;98297.69;5089146;28;20055;-80
2022/07/11 08:04:09;;;;;;;2.67;0.70;;;;;;;32.06;23.96;98288.50;5086864;28;20498;-80
2022/07/11 08:06:37;;;;;;;1.63;0.60;;;;;;;31.66;22.81;98288.88;5071294;28;20482;-79
2022/07/11 08:09:04;;;;;;;3.17;0.70;;;;;;;32.07;22.88;98282.34;5088740;28;20025;-79
2022/07/11 08:11:31;;;;;;;1.13;0.65;;;;;;;31.01;24.08;98289.59;5089433;28;20541;-80
2022/07/11 08:13:58;;;;;;;1.85;0.65;;;;;;;31.10;24.11;98294.44;5087421;28;20020;-80
2022/07/11 08:16:24;;;;;;;2.83;0.60;;;;;;;31.32;24.33;98289.34;5087696;28;20032;-80
2022/07/11 08:18:53;;;;;;;2.70;0.70;;;;;;;31.95;24.37;98288.25;5086278;28;20036;-80
2022/07/11 08:21:19;;;;;;;1.95;0.50;;;;;;;32.21;23.09;98277.97;5070040;28;20060;-79
2022/07/11 08:23:45;;;;;;;3.45;0.77;;;;;;;32.57;23.25;98268.38;5086614;28;20506;-79
2022/07/11 08:26:11;;;;;;;1.73;0.60;;;;;;;33.88;22.16;98276.06;5082016;28;20396;-80
2022/07/11 08:28:37;;;;;;;3.17;0.40;;;;;;;33.77;20.87;98270.22;5077570;28;20036;-80
2022/07/11 08:31:04;;;;;;;1.98;0.95;;;;;;;34.23;21.77;98279.66;5087703;28;20495;-80
2022/07/11 08:33:30;;;;;;;1.20;0.40;;;;;;;32.78;19.24;98277.81;5086419;28;20031;-80
2022/07/11 08:35:56;;;;;;;1.70;0.38;;;;;;;31.70;19.89;98294.38;5086264;28;20016;-80
2022/07/11 08:38:22;;;;;;;2.00;0.25;;;;;;;30.83;21.31;98286.72;5086440;28;20035;-82
2022/07/11 08:40:52;;;;;;;0.30;0.20;;;;;;;31.37;20.45;98286.59;5086910;28;20028;-80
2022/07/11 08:43:22;;;;;;;2.28;0.40;;;;;;;31.40;20.79;98277.16;5087845;28;20085;-82
2022/07/11 08:45:50;;;;;;;1.35;0.40;;;;;;;32.03;19.40;98276.06;5049901;28;20126;-82
2022/07/11 08:48:19;;;;;;;0.40;0.28;;;;;;;32.54;18.57;98266.50;5086326;28;20039;-80
2022/07/11 08:50:45;;;;;;;0.77;0.20;;;;;;;32.72;18.64;98269.22;5086082;28;20024;-80
2022/07/11 08:53:12;;;;;;;2.42;0.20;;;;;;;33.30;18.92;98257.03;5087780;28;20036;-80
2022/07/11 08:55:39;;;;;;;0.20;0.20;;;;;;;33.75;18.55;98256.44;5084347;28;20404;-81
2022/07/11 08:58:07;;;;;;;0.32;0.13;;;;;;;34.13;18.78;98246.88;5087685;28;20171;-81
2022/07/11 09:00:35;;;;;;;0.60;0.20;;;;;;;34.33;17.59;98246.09;5068099;28;20048;-81
2022/07/11 09:03:03;;;;;;;0.20;0.10;;;;;;;34.39;18.19;98242.03;5065778;28;20488;-81
2022/07/11 09:05:32;;;;;;;0.65;0.20;;;;;;;34.60;17.46;98246.44;5068997;28;20488;-81
2022/07/11 09:07:58;;;;;;;0.47;0.10;;;;;;;34.55;18.75;98240.66;5065148;28;20046;-81
2022/07/11 09:10:24;;;;;;;0.32;0.13;;;;;;;34.78;18.49;98242.44;5068312;28;20047;-80
2022/07/11 09:13:06;;;;;;;0.73;0.20;;;;;;;34.82;19.54;98245.09;5068163;28;20082;-82
2022/07/11 09:15:44;;;;;;;0.65;0.30;;;;;;;35.05;19.71;98230.56;5066720;28;20036;-81
2022/07/11 09:18:26;;;;;;;0.25;0.20;;;;;;;35.31;19.50;98227.63;5066533;28;20041;-80
2022/07/11 09:26:38;;;;;;;0.40;0.20;;;;;;;34.72;18.99;98230.22;5066389;28;20082;-80
2022/07/11 09:29:10;;;;;;;3.17;0.22;;;;;;;33.88;20.49;98231.25;5063168;28;20052;-77
2022/07/11 09:31:40;;;;;;;0.63;0.30;;;;;;;32.71;20.95;98222.91;5083115;28;20035;-77
2022/07/11 09:34:08;;;;;;;1.25;0.30;;;;;;;31.92;22.36;98244.56;5064260;28;20068;-77
2022/07/11 09:36:54;;;;;;;2.30;0.60;;;;;;;31.20;21.72;98236.41;5063776;28;20025;-78
2022/07/11 09:39:30;;;;;;;1.38;0.50;;;;;;;30.94;21.98;98247.38;5053157;28;20123;-77
2022/07/11 09:41:57;;;;;;;1.05;0.47;;;;;;;31.54;22.53;98240.84;5065778;28;20025;-78
2022/07/11 09:44:28;;;;;;;1.25;0.40;;;;;;;31.87;20.79;98235.91;5061076;28;20040;-80
2022/07/11 09:46:56;;;;;;;4.45;0.77;;;;;;;31.34;21.78;98236.47;5062983;28;20431;-79
2022/07/11 09:49:34;;;;;;;2.38;0.47;;;;;;;30.91;21.25;98247.53;5054274;28;20086;-79
2022/07/11 09:52:30;;;;;;;2.97;0.52;;;;;;;31.59;21.77;98240.19;5075923;28;20087;-80
2022/07/11 09:54:59;;;;;;;1.02;0.50;;;;;;;31.33;21.79;98234.94;5053392;28;20045;-79
2022/07/11 09:57:36;;;;;;;2.28;0.77;;;;;;;31.88;21.05;98237.47;5053816;28;20044;-79
2022/07/11 10:00:09;;;;;;;0.85;0.47;;;;;;;32.17;21.25;98237.59;5075042;28;20055;-80
2022/07/11 10:02:36;;;;;;;1.70;0.77;;;;;;;33.38;20.66;98233.34;5073871;28;20032;-79
2022/07/11 10:05:03;;;;;;;1.83;0.55;;;;;;;32.36;21.12;98219.13;5079146;28;20033;-78
2022/07/11 10:07:30;;;;;;;1.27;0.43;;;;;;;31.67;21.80;98230.81;5076880;28;20114;-78
2022/07/11 10:10:01;;;;;;;1.88;0.60;;;;;;;32.61;21.21;98224.28;5061511;28;20031;-77
2022/07/11 10:12:29;;;;;;;3.42;0.45;;;;;;;33.05;20.91;98223.53;5081388;28;20121;-77
2022/07/11 10:14:57;;;;;;;1.77;0.35;;;;;;;33.19;20.25;98225.53;5077237;28;20052;-77
2022/07/11 10:17:36;;;;;;;2.97;0.60;;;;;;;32.70;20.15;98221.34;5079655;28;20043;-77
2022/07/11 10:20:11;;;;;;;2.20;0.55;;;;;;;33.36;20.53;98215.19;5083345;28;20429;-75
2022/07/11 10:22:40;;;;;;;0.98;0.50;;;;;;;32.68;19.88;98218.19;5078276;28;20510;-75
2022/07/11 10:25:32;;;;;;;4.15;0.65;;;;;;;33.64;20.08;98215.63;5085234;28;20066;-76
2022/07/11 10:28:44;;;;;;;5.00;0.30;;;;;;;33.69;20.33;98214.94;5084552;28;20037;-76
2022/07/11 10:31:24;;;;;;;3.33;0.30;;;;;;;33.80;18.04;98212.22;5079470;28;20518;-76
2022/07/11 10:34:01;;;;;;;2.13;0.40;;;;;;;34.25;19.39;98202.19;5084645;28;20525;-75
2022/07/11 10:36:31;;;;;;;1.27;0.30;;;;;;;34.14;18.66;98205.72;5088316;28;20063;-75
2022/07/11 10:39:24;;;;;;;1.35;0.40;;;;;;;33.50;18.38;98210.75;5088145;28;20517;-77
2022/07/11 10:41:51;;;;;;;0.85;0.30;;;;;;;33.08;18.71;98216.81;5085763;28;20035;-76
2022/07/11 10:44:17;;;;;;;3.75;0.35;;;;;;;33.46;19.10;98218.72;5084616;28;20101;-76
2022/07/11 10:46:43;;;;;;;3.20;0.60;;;;;;;32.54;19.54;98216.13;5064024;28;20017;-76
2022/07/11 10:49:15;;;;;;;0.57;0.35;;;;;;;31.67;21.11;98210.94;5088402;28;20040;-77
2022/07/11 10:51:44;;;;;;;2.92;0.68;;;;;;;31.95;19.74;98203.78;5084860;28;20040;-77
2022/07/11 10:54:42;;;;;;;0.65;0.40;;;;;;;31.82;19.96;98208.97;5090236;28;20059;-77
2022/07/11 10:57:14;;;;;;;1.20;0.28;;;;;;;32.18;19.45;98207.91;5085105;28;20040;-77
2022/07/11 10:59:56;;;;;;;0.57;0.30;;;;;;;32.70;19.49;98194.94;5072249;28;20048;-77
2022/07/11 11:02:22;;;;;;;2.08;0.40;;;;;;;33.93;19.25;98204.13;5067646;28;20032;-77
2022/07/11 11:05:00;;;;;;;0.93;0.40;;;;;;;33.38;18.70;98218.34;5071638;28;20033;-77
2022/07/11 11:07:34;;;;;;;2.08;0.40;;;;;;;32.53;19.15;98220.25;5063681;28;20036;-77
2022/07/11 11:10:03;;;;;;;1.25;0.68;;;;;;;31.33;21.18;98237.75;5063194;28;20037;-77
2022/07/11 11:13:10;;;;;;;1.95;0.40;;;;;;;30.72;21.61;98247.53;5063879;28;20138;-77
2022/07/11 11:15:54;;;;;;;0.90;0.28;;;;;;;30.36;23.16;98277.97;5064547;28;20043;-76
2022/07/11 11:18:25;;;;;;;3.70;0.98;;;;;;;27.45;29.13;98275.34;5062669;28;20435;-76
2022/07/11 11:21:00;;;;;;;2.78;0.60;;;;;;;25.91;31.61;98268.13;5061949;28;20032;-74
2022/07/11 11:23:35;;;;;;;2.45;0.50;;;;;;;24.57;34.75;98262.84;5058446;28;20511;-74
2022/07/11 11:26:16;;;;;;;3.20;0.40;;;;;;;24.76;34.07;98274.50;5061538;28;20032;-74
2022/07/11 11:29:03;;;;;;;1.30;0.32;;;;;;;26.34;32.18;98321.31;5060056;28;20492;-74
2022/07/11 11:31:31;;;;;;;4.18;0.60;;;;;;;26.00;32.07;98323.78;5056915;28;20040;-75
2022/07/11 11:33:57;;;;;;;0.60;0.40;;;;;;;25.40;33.00;98334.47;5058804;28;20032;-75
2022/07/11 11:36:26;;;;;;;0.68;0.30;;;;;;;24.84;34.08;98352.56;5060798;28;20033;-75
2022/07/11 11:38:52;;;;;;;4.20;0.95;;;;;;;23.90;36.13;98351.06;5059566;28;20547;-75
2022/07/11 11:41:26;;;;;;;1.17;0.40;;;;;;;25.08;34.69;98345.66;5060145;28;20021;-74
2022/07/11 11:43:55;;;;;;;0.55;0.43;;;;;;;24.67;34.48;98354.47;5064906;28;20040;-74
2022/07/11 11:46:51;;;;;;;2.10;0.47;;;;;;;25.99;32.54;98351.16;5062879;28;20044;-75
2022/07/11 11:49:17;;;;;;;1.00;0.50;;;;;;;27.38;30.34;98354.53;5064202;28;20131;-75